createdAt,value
2022-08-18T00:00:06.270Z,29.03
2022-08-18T00:02:43.432Z,29.50
2022-08-18T00:05:16.473Z,30.17
2022-08-18T00:07:47.100Z,30.53
2022-08-18T00:10:18.777Z,23.07
2022-08-18T00:12:46.010Z,19.43
2022-08-18T00:15:16.806Z,18.17
2022-08-18T00:17:43.923Z,19.43
2022-08-18T00:20:22.013Z,20.00
2022-08-18T00:22:50.208Z,19.93
2022-08-18T00:25:19.785Z,21.27
2022-08-18T00:27:46.906Z,21.07
2022-08-18T00:30:20.209Z,21.17
2022-08-18T00:32:57.792Z,23.23
2022-08-18T00:35:32.832Z,21.93
2022-08-18T00:38:04.088Z,23.53
2022-08-18T00:40:38.594Z,23.23
2022-08-18T00:43:13.664Z,25.10
2022-08-18T00:45:43.498Z,26.30
2022-08-18T00:48:15.214Z,24.23
2022-08-18T00:50:51.621Z,24.67
2022-08-18T00:53:27.661Z,25.87
2022-08-18T00:56:05.049Z,25.37
2022-08-18T00:58:41.348Z,26.93
2022-08-18T01:01:12.746Z,29.43
2022-08-18T01:03:43.874Z,30.07
2022-08-18T01:06:23.964Z,29.70
2022-08-18T01:08:51.214Z,29.80
2022-08-18T01:11:18.127Z,33.13
2022-08-18T01:13:45.648Z,33.40
2022-08-18T01:16:31.050Z,34.27
2022-08-18T01:19:16.669Z,34.93
2022-08-18T01:21:51.087Z,36.27
2022-08-18T01:24:52.327Z,38.40
2022-08-18T01:27:19.704Z,40.07
2022-08-18T01:29:50.128Z,39.53
2022-08-18T01:32:21.924Z,36.77
2022-08-18T01:34:51.914Z,36.20
2022-08-18T01:37:24.445Z,34.30
2022-08-18T01:41:25.075Z,31.77
2022-08-18T01:42:39.786Z,32.57
2022-08-18T01:45:08.242Z,30.00
2022-08-18T01:47:48.313Z,31.67
2022-08-18T01:50:16.077Z,31.03
2022-08-18T01:52:43.604Z,28.03
2022-08-18T01:55:10.810Z,27.47
2022-08-18T01:57:42.932Z,29.47
2022-08-18T02:00:17.090Z,30.03
2022-08-18T02:02:44.212Z,29.53
2022-08-18T02:05:18.293Z,29.93
2022-08-18T02:07:45.201Z,29.57
2022-08-18T02:10:16.592Z,30.43
2022-08-18T02:12:44.050Z,32.47
2022-08-18T02:15:12.564Z,31.50
2022-08-18T02:17:42.816Z,34.53
2022-08-18T02:20:15.070Z,34.50
2022-08-18T02:22:42.939Z,33.87
2022-08-18T02:25:12.057Z,33.27
2022-08-18T02:27:39.076Z,31.50
2022-08-18T02:30:10.948Z,32.93
2022-08-18T02:32:38.244Z,32.63
2022-08-18T02:35:09.441Z,31.63
2022-08-18T02:37:42.046Z,30.13
2022-08-18T02:40:14.849Z,28.00
2022-08-18T02:42:43.383Z,30.83
2022-08-18T02:45:12.736Z,29.20
2022-08-18T02:47:40.748Z,29.33
2022-08-18T02:50:10.934Z,26.60
2022-08-18T02:52:40.337Z,26.73
2022-08-18T02:55:08.175Z,26.57
2022-08-18T02:57:35.011Z,26.70
2022-08-18T03:00:02.336Z,27.63
2022-08-18T03:02:29.173Z,29.10
2022-08-18T03:04:55.957Z,27.37
2022-08-18T03:07:22.832Z,26.40
2022-08-18T03:09:49.737Z,28.93
2022-08-18T03:12:16.605Z,31.43
2022-08-18T03:14:43.574Z,29.83
2022-08-18T03:17:10.731Z,26.77
2022-08-18T03:19:38.694Z,29.43
2022-08-18T03:22:27.559Z,29.13
2022-08-18T03:24:56.479Z,27.20
2022-08-18T03:27:23.271Z,28.47
2022-08-18T03:29:51.370Z,26.80
2022-08-18T03:32:18.827Z,26.37
2022-08-18T03:34:45.698Z,27.67
2022-08-18T03:37:12.750Z,26.77
2022-08-18T03:39:40.812Z,23.87
2022-08-18T03:42:08.169Z,27.47
2022-08-18T03:44:39.310Z,27.47
2022-08-18T03:47:10.838Z,27.10
2022-08-18T03:49:38.633Z,26.00
2022-08-18T03:52:10.999Z,29.97
2022-08-18T03:54:39.133Z,27.37
2022-08-18T03:57:09.940Z,28.47
2022-08-18T03:59:37.356Z,25.60
2022-08-18T04:02:05.464Z,25.53
2022-08-18T04:04:32.397Z,26.63
2022-08-18T04:07:06.104Z,26.90
2022-08-18T04:09:35.910Z,26.50
2022-08-18T04:12:17.006Z,29.07
2022-08-18T04:14:49.479Z,27.47
2022-08-18T04:17:24.962Z,29.60
2022-08-18T04:19:55.133Z,28.57
2022-08-18T04:22:23.794Z,32.63
2022-08-18T04:24:51.193Z,33.23
2022-08-18T04:27:21.146Z,36.70
2022-08-18T04:29:48.873Z,40.23
2022-08-18T04:32:16.643Z,40.27
2022-08-18T04:34:43.610Z,40.50
2022-08-18T04:37:10.946Z,39.43
2022-08-18T04:39:38.245Z,43.00
2022-08-18T04:42:05.877Z,41.40
2022-08-18T04:44:33.781Z,42.53
2022-08-18T04:47:02.057Z,41.07
2022-08-18T04:49:30.215Z,42.30
2022-08-18T04:52:30.880Z,43.57
2022-08-18T04:55:03.786Z,39.60
2022-08-18T04:57:34.033Z,42.80
2022-08-18T05:00:04.844Z,42.20
2022-08-18T05:02:33.040Z,43.43
2022-08-18T05:05:01.517Z,44.40
2022-08-18T05:07:30.390Z,42.57
2022-08-18T05:09:57.397Z,45.40
2022-08-18T05:12:25.933Z,42.97
2022-08-18T05:14:56.741Z,42.80
2022-08-18T05:17:29.975Z,45.57
2022-08-18T05:19:59.881Z,45.20
2022-08-18T05:22:31.212Z,43.97
2022-08-18T05:24:59.960Z,47.30
2022-08-18T05:27:32.967Z,46.23
2022-08-18T05:29:59.860Z,50.43
2022-08-18T05:32:37.310Z,47.83
2022-08-18T05:35:25.338Z,50.13
2022-08-18T05:38:17.109Z,46.63
2022-08-18T05:40:46.098Z,46.30
2022-08-18T05:43:15.393Z,48.33
2022-08-18T05:45:44.113Z,46.10
2022-08-18T05:48:10.969Z,47.60
2022-08-18T05:50:38.234Z,49.63
2022-08-18T05:53:14.081Z,46.57
2022-08-18T05:56:19.886Z,45.13
2022-08-18T05:58:55.431Z,45.63
2022-08-18T06:01:38.614Z,46.47
2022-08-18T06:04:29.614Z,46.37
2022-08-18T06:06:58.046Z,45.53
2022-08-18T06:09:38.622Z,51.50
2022-08-18T06:12:19.327Z,46.47
2022-08-18T06:14:46.470Z,45.87
2022-08-18T06:17:43.788Z,45.30
2022-08-18T06:20:42.848Z,43.63
2022-08-18T06:23:34.433Z,43.27
2022-08-18T06:26:26.681Z,42.23
2022-08-18T06:29:12.358Z,43.47
2022-08-18T06:31:51.452Z,43.37
2022-08-18T06:35:18.459Z,42.70
2022-08-18T06:38:46.411Z,46.60
2022-08-18T06:41:40.772Z,45.20
2022-08-18T06:44:19.760Z,46.70
2022-08-18T06:47:20.874Z,45.20
2022-08-18T06:49:55.495Z,44.23
2022-08-18T06:52:33.853Z,45.03
2022-08-18T06:55:17.462Z,46.33
2022-08-18T06:57:58.228Z,45.00
2022-08-18T07:00:32.662Z,45.20
2022-08-18T07:03:18.010Z,43.50
2022-08-18T07:06:06.393Z,45.47
2022-08-18T07:08:43.059Z,44.43
2022-08-18T07:11:17.881Z,45.00
2022-08-18T07:14:03.409Z,44.73
2022-08-18T07:16:57.174Z,43.23
2022-08-18T07:19:30.355Z,42.23
2022-08-18T07:22:11.361Z,40.83
2022-08-18T07:24:48.500Z,42.63
2022-08-18T07:27:49.115Z,43.03
2022-08-18T07:30:36.080Z,37.60
2022-08-18T07:33:21.292Z,32.60
2022-08-18T07:35:54.102Z,32.03
2022-08-18T07:38:58.494Z,31.13
2022-08-18T07:41:39.121Z,31.77
2022-08-18T07:44:26.582Z,34.87
2022-08-18T07:47:07.315Z,35.43
2022-08-18T07:49:50.193Z,36.13
2022-08-18T07:52:47.230Z,38.27
2022-08-18T07:55:35.644Z,35.50
2022-08-18T07:58:22.878Z,35.50
2022-08-18T08:01:27.877Z,34.20
2022-08-18T08:04:25.275Z,32.23
2022-08-18T08:07:30.826Z,32.97
2022-08-18T08:10:37.621Z,36.07
2022-08-18T08:13:53.935Z,36.10
2022-08-18T08:16:51.264Z,34.83
2022-08-18T08:19:59.633Z,35.57
2022-08-18T08:22:31.061Z,34.70
2022-08-18T08:25:45.930Z,37.40
2022-08-18T08:28:55.154Z,36.17
2022-08-18T08:31:50.887Z,35.87
2022-08-18T08:34:40.059Z,35.57
2022-08-18T08:37:15.835Z,36.87
2022-08-18T08:39:54.164Z,34.00
2022-08-18T08:42:45.829Z,36.72
2022-08-18T08:45:27.315Z,34.13
2022-08-18T08:48:24.429Z,35.13
2022-08-18T08:51:03.675Z,33.60
2022-08-18T08:53:41.756Z,34.72
2022-08-18T08:56:16.488Z,33.92
2022-08-18T08:59:02.380Z,35.20
2022-08-18T09:02:08.767Z,34.65
2022-08-18T09:05:09.639Z,33.88
2022-08-18T09:08:14.234Z,34.28
2022-08-18T09:10:59.515Z,34.60
2022-08-18T09:13:56.041Z,34.53
2022-08-18T09:16:52.863Z,33.95
2022-08-18T09:19:58.730Z,33.67
2022-08-18T09:22:55.907Z,32.88
2022-08-18T09:25:38.206Z,32.33
2022-08-18T09:28:13.821Z,33.38
2022-08-18T09:30:54.587Z,33.33
2022-08-18T09:33:48.424Z,32.65
2022-08-18T09:36:37.869Z,34.45
2022-08-18T09:39:56.572Z,34.13
2022-08-18T09:42:56.309Z,32.20
2022-08-18T09:45:35.457Z,32.83
2022-08-18T09:48:28.104Z,33.80
2022-08-18T09:51:19.306Z,33.42
2022-08-18T09:53:46.274Z,32.88
2022-08-18T09:56:53.590Z,33.47
2022-08-18T09:59:36.754Z,33.17
2022-08-18T10:02:28.578Z,32.40
2022-08-18T10:05:17.353Z,30.90
2022-08-18T10:07:54.356Z,31.58
2022-08-18T10:11:01.504Z,31.15
2022-08-18T10:14:06.485Z,30.20
2022-08-18T10:17:23.856Z,29.70
2022-08-18T10:20:26.823Z,29.60
2022-08-18T10:22:57.409Z,30.70
2022-08-18T10:25:38.486Z,30.35
2022-08-18T10:28:10.550Z,29.75
2022-08-18T10:34:19.155Z,29.77
2022-08-18T10:36:51.952Z,30.48
2022-08-18T10:39:47.096Z,29.52
2022-08-18T10:46:51.863Z,30.80
2022-08-18T10:49:29.948Z,28.05
2022-08-18T10:53:24.218Z,29.40
2022-08-18T10:56:27.424Z,29.77
2022-08-18T10:59:07.828Z,28.95
2022-08-18T11:01:59.519Z,28.50
2022-08-18T11:04:44.167Z,28.05
2022-08-18T11:10:58.001Z,26.42
2022-08-18T11:13:56.913Z,25.88
2022-08-18T11:17:24.140Z,23.85
2022-08-18T11:19:54.715Z,25.75
2022-08-18T11:22:34.413Z,26.40
2022-08-18T11:25:19.501Z,26.08
2022-08-18T11:27:51.289Z,26.58
2022-08-18T11:30:21.321Z,23.88
2022-08-18T11:33:02.948Z,21.85
2022-08-18T11:35:48.296Z,21.38
2022-08-18T11:38:21.041Z,19.27
2022-08-18T11:41:11.243Z,20.23
2022-08-18T11:43:46.582Z,20.98
2022-08-18T11:46:30.400Z,21.25
2022-08-18T11:49:01.709Z,20.27
2022-08-18T11:51:33.208Z,18.60
2022-08-18T11:54:13.864Z,19.08
2022-08-18T11:56:40.831Z,19.65
2022-08-18T11:59:53.956Z,20.38
2022-08-18T12:02:24.236Z,20.02
2022-08-18T12:05:03.486Z,19.35
2022-08-18T12:07:57.570Z,18.85
2022-08-18T12:10:29.645Z,19.20
2022-08-18T12:13:00.622Z,19.50
2022-08-18T12:15:44.110Z,25.85
2022-08-18T12:18:26.149Z,23.98
2022-08-18T12:20:58.951Z,25.10
2022-08-18T12:23:26.118Z,22.25
2022-08-18T12:25:53.076Z,22.45
2022-08-18T12:28:22.283Z,22.73
2022-08-18T12:30:57.012Z,21.98
2022-08-18T12:33:25.436Z,22.90
2022-08-18T12:35:54.721Z,23.15
2022-08-18T12:38:23.430Z,21.55
2022-08-18T12:40:51.050Z,21.10
2022-08-18T12:43:18.952Z,20.98
2022-08-18T12:45:47.463Z,19.25
2022-08-18T12:48:14.714Z,19.15
2022-08-18T12:50:54.696Z,19.23
2022-08-18T12:53:29.993Z,19.80
2022-08-18T12:56:19.720Z,20.00
2022-08-18T12:58:47.660Z,20.58
2022-08-18T13:01:25.015Z,22.05
2022-08-18T13:04:13.317Z,21.50
2022-08-18T13:07:04.791Z,19.70
2022-08-18T13:09:52.592Z,19.50
2022-08-18T13:12:22.453Z,16.80
2022-08-18T13:14:58.007Z,16.73
2022-08-18T13:17:30.076Z,16.70
2022-08-18T13:20:13.822Z,18.13
2022-08-18T13:22:41.796Z,16.17
2022-08-18T13:25:32.761Z,14.65
2022-08-18T13:28:01.898Z,14.35
2022-08-18T13:30:32.143Z,17.17
2022-08-18T13:33:02.703Z,13.07
2022-08-18T13:35:38.311Z,12.73
2022-08-18T13:38:20.791Z,12.48
2022-08-18T13:40:55.623Z,14.50
2022-08-18T13:43:32.048Z,13.85
2022-08-18T13:45:59.862Z,12.88
2022-08-18T13:48:29.775Z,13.27
2022-08-18T13:51:00.982Z,13.50
2022-08-18T13:53:31.324Z,13.02
2022-08-18T13:55:59.463Z,11.80
2022-08-18T13:58:29.129Z,11.27
2022-08-18T14:03:48.204Z,13.35
2022-08-18T14:06:22.468Z,13.68
2022-08-18T14:08:50.683Z,12.50
2022-08-18T14:11:18.691Z,10.65
2022-08-18T14:13:46.896Z,10.13
2022-08-18T14:16:18.926Z,9.90
2022-08-18T14:19:09.923Z,11.73
2022-08-18T14:22:01.787Z,11.52
2022-08-18T14:24:49.517Z,10.55
2022-08-18T14:27:18.424Z,12.57
2022-08-18T14:29:48.571Z,12.70
2022-08-18T14:32:28.432Z,12.13
2022-08-18T14:35:31.908Z,11.25
2022-08-18T14:37:49.437Z,10.52
2022-08-18T14:40:19.919Z,9.43
2022-08-18T14:42:55.068Z,8.20
2022-08-18T14:45:31.672Z,8.30
2022-08-18T14:48:07.443Z,7.28
2022-08-18T14:50:44.693Z,8.27
2022-08-18T14:53:20.078Z,7.63
2022-08-18T14:55:52.589Z,10.93
2022-08-18T14:58:28.662Z,8.07
2022-08-18T15:00:59.221Z,7.18
2022-08-18T15:03:31.613Z,6.80
2022-08-18T15:06:04.858Z,6.53
2022-08-18T15:08:37.857Z,6.55
2022-08-18T15:11:11.299Z,7.13
2022-08-18T15:13:43.377Z,6.55
2022-08-18T15:16:11.562Z,7.50
2022-08-18T15:18:38.398Z,7.40
2022-08-18T15:21:38.321Z,10.40
2022-08-18T15:24:26.306Z,10.93
2022-08-18T15:27:03.286Z,8.32
2022-08-18T15:29:34.269Z,8.45
2022-08-18T15:32:06.089Z,7.47
2022-08-18T15:34:47.085Z,7.65
2022-08-18T15:37:20.367Z,8.30
2022-08-18T15:40:02.933Z,10.63
2022-08-18T15:42:30.209Z,8.57
2022-08-18T15:45:12.097Z,7.32
2022-08-18T15:47:41.358Z,10.88
2022-08-18T15:50:21.881Z,7.22
2022-08-18T15:53:00.604Z,7.15
2022-08-18T15:55:36.059Z,7.15
2022-08-18T15:58:11.108Z,9.07
2022-08-18T16:00:45.518Z,6.97
2022-08-18T16:03:14.841Z,7.45
2022-08-18T16:05:56.658Z,8.20
2022-08-18T16:08:25.783Z,8.35
2022-08-18T16:10:54.469Z,7.80
2022-08-18T16:13:22.833Z,7.18
2022-08-18T16:15:50.422Z,7.50
2022-08-18T16:18:23.132Z,8.25
2022-08-18T16:20:50.603Z,7.60
2022-08-18T16:23:23.654Z,7.45
2022-08-18T16:25:50.614Z,7.25
2022-08-18T16:28:17.382Z,8.20
2022-08-18T16:30:46.682Z,7.55
2022-08-18T16:33:13.457Z,7.47
2022-08-18T16:35:40.359Z,7.60
2022-08-18T16:38:12.088Z,8.05
2022-08-18T16:40:40.281Z,7.20
2022-08-18T16:43:07.370Z,8.10
2022-08-18T16:45:37.242Z,7.90
2022-08-18T16:48:08.181Z,7.50
2022-08-18T16:50:37.636Z,8.05
2022-08-18T16:53:05.526Z,7.80
2022-08-18T16:55:32.475Z,7.75
2022-08-18T16:58:18.025Z,8.40
2022-08-18T17:01:03.181Z,13.57
2022-08-18T17:03:48.429Z,9.48
2022-08-18T17:06:18.791Z,8.88
2022-08-18T17:08:46.191Z,8.30
2022-08-18T17:11:18.904Z,8.57
2022-08-18T17:13:49.541Z,8.32
2022-08-18T17:16:19.818Z,7.72
2022-08-18T17:18:47.759Z,7.60
2022-08-18T17:21:20.060Z,7.72
2022-08-18T17:23:48.890Z,7.38
2022-08-18T17:27:19.194Z,7.22
2022-08-18T17:30:01.596Z,7.60
2022-08-18T17:32:52.004Z,7.60
2022-08-18T17:35:30.448Z,8.40
2022-08-18T17:38:09.186Z,7.65
2022-08-18T17:40:48.214Z,7.47
2022-08-18T17:43:22.914Z,6.95
2022-08-18T17:45:57.577Z,12.07
2022-08-18T17:48:40.848Z,9.63
2022-08-18T17:51:34.176Z,7.90
2022-08-18T17:54:23.512Z,7.38
2022-08-18T17:57:01.421Z,17.52
2022-08-18T17:59:52.038Z,10.52
2022-08-18T18:02:29.759Z,8.70
2022-08-18T18:05:07.131Z,10.85
2022-08-18T18:07:57.876Z,9.07
2022-08-18T18:11:04.455Z,7.57
2022-08-18T18:13:33.931Z,7.50
2022-08-18T18:16:24.864Z,8.27
2022-08-18T18:19:03.373Z,7.60
2022-08-18T18:21:53.396Z,8.02
2022-08-18T18:24:32.297Z,7.15
2022-08-18T18:27:00.081Z,8.10
2022-08-18T18:29:38.016Z,8.00
2022-08-18T18:32:27.732Z,7.60
2022-08-18T18:35:22.862Z,11.35
2022-08-18T18:38:23.054Z,9.00
2022-08-18T18:41:01.945Z,8.48
2022-08-18T18:43:45.948Z,8.38
2022-08-18T18:46:24.541Z,8.05
2022-08-18T18:49:05.789Z,8.98
2022-08-18T18:52:19.228Z,8.00
2022-08-18T18:55:03.428Z,7.32
2022-08-18T18:57:48.570Z,11.05
2022-08-18T19:00:41.962Z,21.42
2022-08-18T19:03:38.389Z,7.60
2022-08-18T19:06:32.547Z,7.32
2022-08-18T19:09:29.536Z,14.02
2022-08-18T19:12:20.812Z,7.15
2022-08-18T19:15:00.028Z,7.10
2022-08-18T19:17:38.811Z,12.82
2022-08-18T19:20:17.087Z,8.43
2022-08-18T19:23:11.069Z,7.43
2022-08-18T19:25:52.204Z,6.53
2022-08-18T19:28:34.325Z,6.85
2022-08-18T19:31:23.233Z,8.00
2022-08-18T19:34:08.525Z,7.45
2022-08-18T19:37:06.941Z,7.93
2022-08-18T19:39:42.690Z,8.25
2022-08-18T19:42:35.694Z,8.65
2022-08-18T19:45:29.849Z,8.18
2022-08-18T19:48:18.224Z,7.82
2022-08-18T19:50:58.045Z,8.98
2022-08-18T19:53:56.985Z,8.45
2022-08-18T19:56:36.580Z,8.38
2022-08-18T19:59:15.387Z,7.18
2022-08-18T20:01:45.495Z,8.18
2022-08-18T20:05:01.646Z,7.97
2022-08-18T20:08:06.600Z,8.50
2022-08-18T20:11:11.026Z,8.77
2022-08-18T20:13:44.643Z,9.13
2022-08-18T20:16:44.036Z,8.35
2022-08-18T20:19:43.360Z,8.75
2022-08-18T20:22:24.328Z,8.65
2022-08-18T20:25:08.786Z,8.75
2022-08-18T20:28:11.218Z,9.70
2022-08-18T20:31:06.721Z,8.63
2022-08-18T20:33:46.809Z,9.38
2022-08-18T20:36:36.676Z,8.98
2022-08-18T20:39:47.557Z,8.80
2022-08-18T20:42:24.576Z,8.55
2022-08-18T20:44:59.747Z,9.00
2022-08-18T20:48:12.969Z,9.43
2022-08-18T20:51:13.675Z,10.02
2022-08-18T20:54:13.381Z,9.48
2022-08-18T20:56:44.452Z,10.88
2022-08-18T20:59:21.631Z,10.07
2022-08-18T21:01:56.317Z,9.90
2022-08-18T21:04:46.486Z,9.90
2022-08-18T21:07:36.207Z,10.35
2022-08-18T21:10:21.628Z,10.23
2022-08-18T21:12:56.706Z,10.23
2022-08-18T21:15:35.537Z,9.75
2022-08-18T21:18:20.862Z,10.50
2022-08-18T21:20:51.212Z,10.35
2022-08-18T21:23:29.762Z,10.93
2022-08-18T21:26:09.994Z,10.00
2022-08-18T21:28:40.795Z,10.43
2022-08-18T21:31:42.676Z,10.63
2022-08-18T21:34:28.714Z,11.23
2022-08-18T21:36:58.192Z,11.38
2022-08-18T21:39:25.675Z,11.20
2022-08-18T21:41:56.850Z,11.43
2022-08-18T21:44:38.442Z,11.35
2022-08-18T21:47:17.671Z,10.43
2022-08-18T21:50:17.375Z,11.10
2022-08-18T21:53:01.639Z,11.23
2022-08-18T21:55:39.741Z,10.57
2022-08-18T21:58:16.715Z,10.70
2022-08-18T22:01:11.257Z,11.43
2022-08-18T22:04:06.997Z,10.27
2022-08-18T22:06:33.796Z,11.33
2022-08-18T22:09:28.468Z,10.57
2022-08-18T22:12:46.834Z,10.57
2022-08-18T22:15:25.838Z,10.63
2022-08-18T22:18:00.947Z,10.43
2022-08-18T22:20:50.578Z,10.80
2022-08-18T22:23:46.435Z,11.10
2022-08-18T22:26:28.778Z,11.73
2022-08-18T22:29:16.475Z,11.13
2022-08-18T22:31:48.262Z,10.97
2022-08-18T22:34:28.606Z,10.93
2022-08-18T22:37:03.572Z,10.43
2022-08-18T22:39:55.737Z,10.73
2022-08-18T22:42:27.709Z,11.97
2022-08-18T22:44:58.079Z,10.90
2022-08-18T22:47:29.324Z,11.30
2022-08-18T22:49:57.330Z,11.70
2022-08-18T22:52:40.479Z,11.97
2022-08-18T22:55:12.722Z,11.60
2022-08-18T22:57:42.799Z,11.27
2022-08-18T23:00:15.238Z,11.80
2022-08-18T23:02:43.708Z,11.80
2022-08-18T23:05:11.828Z,11.40
2022-08-18T23:07:38.799Z,11.20
2022-08-18T23:10:13.558Z,11.83
2022-08-18T23:12:46.795Z,11.93
2022-08-18T23:15:17.036Z,12.23
2022-08-18T23:17:44.389Z,11.83
2022-08-18T23:20:19.223Z,11.93
2022-08-18T23:22:47.883Z,12.43
2022-08-18T23:25:15.826Z,12.80
2022-08-18T23:27:43.079Z,12.47
2022-08-18T23:30:11.132Z,12.60
2022-08-18T23:32:38.063Z,12.83
2022-08-18T23:35:05.776Z,11.80
2022-08-18T23:37:32.635Z,13.27
2022-08-18T23:39:59.658Z,12.57
2022-08-18T23:42:26.715Z,12.67
2022-08-18T23:44:53.547Z,12.33
2022-08-18T23:47:20.784Z,12.73
2022-08-18T23:49:48.356Z,13.37
2022-08-18T23:52:15.379Z,13.00
2022-08-18T23:54:42.455Z,13.57
2022-08-18T23:57:09.317Z,13.27
2022-08-18T23:59:36.589Z,11.93
